Time;durP1;ratioP1;P1;durP2;ratioP2;P2;SDS_P1;SDS_P2;PMS_P1;PMS_P2;Temp;Humidity;BMP_temperature;BMP_pressure;BME280_temperature;BME280_humidity;BME280_pressure;Samples;Min_cycle;Max_cycle;Signal;HPM_P1;HPM_P2
2023/01/07 00:00:58;;;;;;;25.48;15.68;;;;;;;;;;5038327;28;20548;-73
2023/01/07 00:03:24;;;;;;;24.60;16.42;;;;;;;;;;5041276;28;20029;-72
2023/01/07 00:05:49;;;;;;;25.17;15.48;;;;;;;;;;5041745;28;20070;-72
2023/01/07 00:08:14;;;;;;;24.42;14.85;;;;;;;;;;5022462;28;20137;-71
2023/01/07 00:10:39;;;;;;;27.90;16.80;;;;;;;;;;5041314;28;20295;-72
2023/01/07 00:13:05;;;;;;;21.85;14.93;;;;;;;;;;5041773;28;20044;-72
2023/01/07 00:15:33;;;;;;;26.05;15.65;;;;;;;;;;5041401;28;20032;-74
2023/01/07 00:17:58;;;;;;;22.05;14.57;;;;;;;;;;5041355;28;20182;-72
2023/01/07 00:20:26;;;;;;;25.80;19.65;;;;;;;;;;5027448;28;20037;-71
2023/01/07 00:22:51;;;;;;;19.48;12.77;;;;;;;;;;5018364;28;20136;-73
2023/01/07 00:25:16;;;;;;;21.98;13.32;;;;;;;;;;5019558;28;20485;-73
2023/01/07 00:27:44;;;;;;;24.23;14.93;;;;;;;;;;5019452;28;20041;-73
2023/01/07 00:30:12;;;;;;;24.00;13.23;;;;;;;;;;5022124;28;20060;-72
2023/01/07 00:32:58;;;;;;;18.33;12.50;;;;;;;;;;5025081;28;20060;-72
2023/01/07 00:35:23;;;;;;;28.63;13.45;;;;;;;;;;5021910;28;20176;-73
2023/01/07 00:37:50;;;;;;;26.52;14.35;;;;;;;;;;5024775;28;20098;-73
2023/01/07 00:40:15;;;;;;;23.13;12.05;;;;;;;;;;5056152;28;20554;-72
2023/01/07 00:42:53;;;;;;;25.00;12.55;;;;;;;;;;5025689;28;20033;-72
2023/01/07 00:45:21;;;;;;;23.98;11.88;;;;;;;;;;5006396;28;20037;-72
2023/01/07 00:47:47;;;;;;;22.58;10.85;;;;;;;;;;5041063;28;20032;-73
2023/01/07 00:50:12;;;;;;;20.65;10.43;;;;;;;;;;5044843;28;20110;-73
2023/01/07 00:52:38;;;;;;;22.05;12.25;;;;;;;;;;5044278;28;20532;-73
2023/01/07 00:55:03;;;;;;;26.00;13.50;;;;;;;;;;5044126;28;20113;-73
2023/01/07 00:57:29;;;;;;;30.17;12.80;;;;;;;;;;5044629;28;20063;-72
2023/01/07 00:59:54;;;;;;;26.70;12.13;;;;;;;;;;5043672;28;20048;-73
2023/01/07 01:02:22;;;;;;;30.65;13.25;;;;;;;;;;5044521;28;20067;-72
2023/01/07 01:04:47;;;;;;;28.08;10.40;;;;;;;;;;5042957;28;20036;-73
2023/01/07 01:07:15;;;;;;;25.77;10.73;;;;;;;;;;5042650;28;20029;-72
2023/01/07 01:09:42;;;;;;;27.17;10.50;;;;;;;;;;5041850;28;20389;-72
2023/01/07 01:12:07;;;;;;;30.30;10.77;;;;;;;;;;5042130;28;20052;-73
2023/01/07 01:14:32;;;;;;;34.70;11.35;;;;;;;;;;5041859;28;20336;-72
2023/01/07 01:16:58;;;;;;;25.88;11.23;;;;;;;;;;5043930;28;20731;-73
2023/01/07 01:19:23;;;;;;;29.70;12.52;;;;;;;;;;5024338;28;20060;-72
2023/01/07 01:21:48;;;;;;;25.23;11.60;;;;;;;;;;5022662;28;20036;-73
2023/01/07 01:24:14;;;;;;;28.58;12.10;;;;;;;;;;5027436;28;20565;-72
2023/01/07 01:26:39;;;;;;;20.33;10.98;;;;;;;;;;5024781;28;20036;-72
2023/01/07 01:29:05;;;;;;;23.42;10.35;;;;;;;;;;5023183;28;20025;-73
2023/01/07 01:31:31;;;;;;;20.45;10.13;;;;;;;;;;5023284;28;20072;-73
2023/01/07 01:33:58;;;;;;;20.60;9.63;;;;;;;;;;5023303;28;20132;-73
2023/01/07 01:36:26;;;;;;;21.63;11.45;;;;;;;;;;5023652;28;20055;-73
2023/01/07 01:38:51;;;;;;;18.92;8.95;;;;;;;;;;5020659;28;20186;-72
2023/01/07 01:41:17;;;;;;;16.88;10.93;;;;;;;;;;5023793;28;20323;-74
2023/01/07 01:43:43;;;;;;;21.65;10.85;;;;;;;;;;5021913;28;20036;-73
2023/01/07 01:46:11;;;;;;;23.30;11.57;;;;;;;;;;5019104;28;20651;-72
2023/01/07 01:48:38;;;;;;;22.38;9.80;;;;;;;;;;4988394;28;20036;-72
2023/01/07 01:51:04;;;;;;;24.67;8.45;;;;;;;;;;4999973;28;20034;-72
2023/01/07 01:53:32;;;;;;;18.30;8.98;;;;;;;;;;4998763;28;20041;-73
2023/01/07 01:56:01;;;;;;;20.27;9.48;;;;;;;;;;4983526;28;20144;-73
2023/01/07 01:58:31;;;;;;;25.20;10.90;;;;;;;;;;4999037;28;20722;-72
2023/01/07 02:00:57;;;;;;;20.23;9.75;;;;;;;;;;5003179;28;20289;-72
2023/01/07 02:03:27;;;;;;;19.95;8.20;;;;;;;;;;5003228;28;20549;-73
2023/01/07 02:05:52;;;;;;;20.42;9.32;;;;;;;;;;5001020;28;20041;-73
2023/01/07 02:08:21;;;;;;;19.95;9.38;;;;;;;;;;5003555;28;20034;-72
2023/01/07 02:10:49;;;;;;;20.27;8.82;;;;;;;;;;5001341;28;20033;-72
2023/01/07 02:13:21;;;;;;;18.70;8.18;;;;;;;;;;5002960;28;20720;-72
2023/01/07 02:16:05;;;;;;;15.30;7.40;;;;;;;;;;5003578;28;20486;-71
2023/01/07 02:18:56;;;;;;;16.58;6.57;;;;;;;;;;5002924;28;20040;-73
2023/01/07 02:21:23;;;;;;;12.07;6.50;;;;;;;;;;4994639;28;20093;-73
2023/01/07 02:24:07;;;;;;;16.13;8.88;;;;;;;;;;5003901;28;20182;-72
2023/01/07 02:26:35;;;;;;;17.33;8.52;;;;;;;;;;5001974;28;20486;-72
2023/01/07 02:29:19;;;;;;;14.88;7.80;;;;;;;;;;5002376;28;20268;-72
2023/01/07 02:32:05;;;;;;;14.05;6.88;;;;;;;;;;4983196;28;20270;-73
2023/01/07 02:34:30;;;;;;;13.85;6.97;;;;;;;;;;5002047;28;20091;-73
2023/01/07 02:37:04;;;;;;;12.02;6.40;;;;;;;;;;5003298;28;20079;-73
2023/01/07 02:39:48;;;;;;;14.27;8.32;;;;;;;;;;5002577;28;20489;-73
2023/01/07 02:42:22;;;;;;;11.77;6.40;;;;;;;;;;5001285;28;20032;-72
2023/01/07 02:44:51;;;;;;;10.43;6.60;;;;;;;;;;5002182;28;20086;-72
2023/01/07 02:47:24;;;;;;;11.15;6.90;;;;;;;;;;5030133;28;20310;-72
2023/01/07 02:49:50;;;;;;;15.82;6.80;;;;;;;;;;5041656;28;20033;-72
2023/01/07 02:52:17;;;;;;;10.65;6.32;;;;;;;;;;5023475;28;20051;-73
2023/01/07 02:54:43;;;;;;;10.70;6.75;;;;;;;;;;5038855;28;20034;-72
2023/01/07 02:57:08;;;;;;;13.35;7.82;;;;;;;;;;5042587;28;20841;-72
2023/01/07 02:59:52;;;;;;;15.00;8.93;;;;;;;;;;5041527;28;20028;-72
2023/01/07 03:02:36;;;;;;;14.32;8.93;;;;;;;;;;5040635;28;20349;-73
2023/01/07 03:05:07;;;;;;;12.30;8.93;;;;;;;;;;5040611;28;20031;-72
2023/01/07 03:07:42;;;;;;;26.02;12.50;;;;;;;;;;5042090;28;20271;-72
2023/01/07 03:10:18;;;;;;;16.90;9.50;;;;;;;;;;5039496;28;20616;-72
2023/01/07 03:12:51;;;;;;;15.10;10.15;;;;;;;;;;5022024;28;20051;-72
2023/01/07 03:15:25;;;;;;;21.27;13.00;;;;;;;;;;5037069;28;20577;-72
2023/01/07 03:17:53;;;;;;;20.52;11.23;;;;;;;;;;5021939;28;20129;-71
2023/01/07 03:20:22;;;;;;;22.40;13.98;;;;;;;;;;5023283;28;20036;-72
2023/01/07 03:22:48;;;;;;;17.55;11.73;;;;;;;;;;5022498;28;20560;-72
2023/01/07 03:25:15;;;;;;;16.85;11.98;;;;;;;;;;5002511;28;20144;-71
2023/01/07 03:27:41;;;;;;;15.38;12.10;;;;;;;;;;5002754;28;20517;-72
2023/01/07 03:30:09;;;;;;;19.38;12.70;;;;;;;;;;5018241;28;20036;-72
2023/01/07 03:32:40;;;;;;;15.98;11.65;;;;;;;;;;5021609;28;20264;-71
2023/01/07 03:35:06;;;;;;;20.33;12.13;;;;;;;;;;5021757;28;20124;-72
2023/01/07 03:37:31;;;;;;;18.80;11.93;;;;;;;;;;5020202;28;20066;-72
2023/01/07 03:40:01;;;;;;;22.35;13.07;;;;;;;;;;5020095;28;20132;-72
2023/01/07 03:42:41;;;;;;;22.20;12.35;;;;;;;;;;5021346;28;20192;-72
2023/01/07 03:45:10;;;;;;;15.57;10.88;;;;;;;;;;5020910;28;20177;-74
2023/01/07 03:47:36;;;;;;;16.40;9.88;;;;;;;;;;5021057;28;20038;-73
2023/01/07 03:50:01;;;;;;;17.13;10.25;;;;;;;;;;5021883;28;20029;-72
2023/01/07 03:52:27;;;;;;;20.38;10.85;;;;;;;;;;5021676;28;20052;-73
2023/01/07 03:54:54;;;;;;;20.52;11.60;;;;;;;;;;5022256;28;20490;-72
2023/01/07 03:57:20;;;;;;;27.15;13.85;;;;;;;;;;5022273;28;20037;-73
2023/01/07 03:59:45;;;;;;;19.92;10.40;;;;;;;;;;5021621;28;20357;-73
2023/01/07 04:02:10;;;;;;;24.25;11.88;;;;;;;;;;5022569;28;20486;-73
2023/01/07 04:04:37;;;;;;;16.75;9.60;;;;;;;;;;5023415;28;20032;-74
2023/01/07 04:07:03;;;;;;;23.17;12.13;;;;;;;;;;5025874;28;20051;-73
2023/01/07 04:09:31;;;;;;;22.00;10.82;;;;;;;;;;5025920;28;20025;-73
2023/01/07 04:11:56;;;;;;;15.68;9.35;;;;;;;;;;5014668;28;20179;-73
2023/01/07 04:14:22;;;;;;;15.13;8.60;;;;;;;;;;5025534;28;20546;-73
2023/01/07 04:16:49;;;;;;;17.98;10.10;;;;;;;;;;5026293;28;20069;-72
2023/01/07 04:19:15;;;;;;;26.05;11.48;;;;;;;;;;5023363;28;20044;-72
2023/01/07 04:21:40;;;;;;;24.05;10.70;;;;;;;;;;5023578;28;20571;-72
2023/01/07 04:24:06;;;;;;;27.88;12.05;;;;;;;;;;5025963;28;20037;-72
2023/01/07 04:26:32;;;;;;;18.67;9.70;;;;;;;;;;5024430;28;20195;-73
2023/01/07 04:28:58;;;;;;;27.00;12.40;;;;;;;;;;5024912;28;20112;-72
2023/01/07 04:31:23;;;;;;;24.95;11.90;;;;;;;;;;5024426;28;20156;-72
2023/01/07 04:33:48;;;;;;;28.42;12.73;;;;;;;;;;5025274;28;20075;-72
2023/01/07 04:36:14;;;;;;;23.58;10.95;;;;;;;;;;5022469;28;20075;-72
2023/01/07 04:38:41;;;;;;;15.15;9.07;;;;;;;;;;5006697;28;20407;-72
2023/01/07 04:41:06;;;;;;;30.67;12.65;;;;;;;;;;5022163;28;20107;-71
2023/01/07 04:43:35;;;;;;;30.50;13.30;;;;;;;;;;5025143;28;20034;-72
2023/01/07 04:46:02;;;;;;;28.20;12.43;;;;;;;;;;5027047;28;20052;-72
2023/01/07 04:48:28;;;;;;;31.17;12.23;;;;;;;;;;5044808;28;20058;-72
2023/01/07 04:50:53;;;;;;;38.75;15.38;;;;;;;;;;5044312;28;20858;-71
2023/01/07 04:53:19;;;;;;;28.27;12.35;;;;;;;;;;5044674;28;20066;-72
2023/01/07 04:55:44;;;;;;;35.78;15.15;;;;;;;;;;5044536;28;20161;-73
2023/01/07 04:58:09;;;;;;;32.30;13.60;;;;;;;;;;5044873;28;20035;-73
2023/01/07 05:00:35;;;;;;;30.23;12.10;;;;;;;;;;5044394;28;20226;-73
2023/01/07 05:03:00;;;;;;;25.52;10.88;;;;;;;;;;5044999;28;20397;-73
2023/01/07 05:05:26;;;;;;;27.48;12.30;;;;;;;;;;5042441;28;20071;-72
2023/01/07 05:07:51;;;;;;;32.47;12.05;;;;;;;;;;5044968;28;20032;-73
2023/01/07 05:10:16;;;;;;;29.98;12.65;;;;;;;;;;5042306;28;20040;-73
2023/01/07 05:12:44;;;;;;;32.55;15.00;;;;;;;;;;5038438;28;20194;-73
2023/01/07 05:15:10;;;;;;;33.13;13.02;;;;;;;;;;5022429;28;20574;-71
2023/01/07 05:17:35;;;;;;;28.73;13.43;;;;;;;;;;5023486;28;20060;-73
2023/01/07 05:20:01;;;;;;;28.55;13.73;;;;;;;;;;5023860;28;20250;-72
2023/01/07 05:22:26;;;;;;;32.42;14.73;;;;;;;;;;5021976;28;20186;-73
2023/01/07 05:24:53;;;;;;;28.92;15.10;;;;;;;;;;5024874;28;20053;-73
2023/01/07 05:27:20;;;;;;;29.95;14.20;;;;;;;;;;5011909;28;20123;-73
2023/01/07 05:29:45;;;;;;;26.88;12.80;;;;;;;;;;5024521;28;20064;-73
2023/01/07 05:32:10;;;;;;;22.85;11.95;;;;;;;;;;5023565;28;20070;-73
2023/01/07 05:34:35;;;;;;;26.70;12.63;;;;;;;;;;5024554;28;20248;-74
2023/01/07 05:37:01;;;;;;;28.45;14.15;;;;;;;;;;5023835;28;20501;-74
2023/01/07 05:39:27;;;;;;;22.42;13.05;;;;;;;;;;5024369;28;20455;-73
2023/01/07 05:41:52;;;;;;;29.42;14.73;;;;;;;;;;5022000;28;20599;-74
2023/01/07 05:44:18;;;;;;;28.55;15.40;;;;;;;;;;5023947;28;20025;-73
2023/01/07 05:46:43;;;;;;;24.08;14.32;;;;;;;;;;5005018;28;20075;-72
2023/01/07 05:49:08;;;;;;;31.40;17.25;;;;;;;;;;5023608;28;20028;-74
2023/01/07 05:51:36;;;;;;;28.13;16.00;;;;;;;;;;5021694;28;20071;-74
2023/01/07 05:54:02;;;;;;;38.10;17.90;;;;;;;;;;5024422;28;20036;-74
2023/01/07 05:56:27;;;;;;;30.38;16.10;;;;;;;;;;5023345;28;20144;-73
2023/01/07 05:58:53;;;;;;;26.67;14.77;;;;;;;;;;5023824;28;20134;-72
2023/01/07 06:01:19;;;;;;;30.63;17.40;;;;;;;;;;5023087;28;20357;-73
2023/01/07 06:03:44;;;;;;;29.45;15.23;;;;;;;;;;5022891;28;20297;-73
2023/01/07 06:06:12;;;;;;;28.55;15.15;;;;;;;;;;5022986;28;20923;-74
2023/01/07 06:08:38;;;;;;;40.63;19.27;;;;;;;;;;5021969;28;20037;-73
2023/01/07 06:11:07;;;;;;;36.95;18.33;;;;;;;;;;5023106;28;20048;-73
2023/01/07 06:13:34;;;;;;;32.05;17.05;;;;;;;;;;5020844;28;20268;-74
2023/01/07 06:16:04;;;;;;;31.60;17.55;;;;;;;;;;5024795;28;20296;-73
2023/01/07 06:18:32;;;;;;;30.52;16.38;;;;;;;;;;5021131;28;20033;-73
2023/01/07 06:20:57;;;;;;;31.63;17.67;;;;;;;;;;5022602;28;20776;-72
2023/01/07 06:23:25;;;;;;;35.50;18.13;;;;;;;;;;5021237;28;20111;-72
2023/01/07 06:25:51;;;;;;;34.10;17.75;;;;;;;;;;5023381;28;20120;-72
2023/01/07 06:28:16;;;;;;;31.30;17.33;;;;;;;;;;5023528;28;20553;-73
2023/01/07 06:30:45;;;;;;;38.13;17.58;;;;;;;;;;5022906;28;20413;-73
2023/01/07 06:33:10;;;;;;;33.08;16.40;;;;;;;;;;5021796;28;20052;-74
2023/01/07 06:35:35;;;;;;;30.92;16.75;;;;;;;;;;5023593;28;20371;-72
2023/01/07 06:38:01;;;;;;;30.98;16.35;;;;;;;;;;5004575;28;20040;-73
2023/01/07 06:40:26;;;;;;;36.15;18.42;;;;;;;;;;5022442;28;20132;-73
2023/01/07 06:42:52;;;;;;;32.55;15.82;;;;;;;;;;5023060;28;20044;-73
2023/01/07 06:45:17;;;;;;;29.75;16.42;;;;;;;;;;5023674;28;20429;-73
2023/01/07 06:47:44;;;;;;;35.50;18.17;;;;;;;;;;5038231;28;20070;-73
2023/01/07 06:50:09;;;;;;;36.92;17.92;;;;;;;;;;5041785;28;20036;-73
2023/01/07 06:52:35;;;;;;;33.92;16.55;;;;;;;;;;5043363;28;20043;-74
2023/01/07 06:55:00;;;;;;;38.08;15.70;;;;;;;;;;5043528;28;20036;-73
2023/01/07 06:57:25;;;;;;;32.30;17.10;;;;;;;;;;5045483;28;20025;-74
2023/01/07 06:59:50;;;;;;;37.20;17.67;;;;;;;;;;5043599;28;20397;-72
2023/01/07 07:02:17;;;;;;;35.58;16.77;;;;;;;;;;5039708;28;20044;-71
2023/01/07 07:04:42;;;;;;;38.08;19.67;;;;;;;;;;5043767;28;21759;-71
2023/01/07 07:07:07;;;;;;;41.45;20.13;;;;;;;;;;5041917;28;20105;-71
2023/01/07 07:09:33;;;;;;;44.85;18.23;;;;;;;;;;5042016;28;20052;-71
2023/01/07 07:11:58;;;;;;;37.17;17.40;;;;;;;;;;5020201;28;20294;-73
2023/01/07 07:14:26;;;;;;;39.17;18.52;;;;;;;;;;5022912;28;20044;-72
2023/01/07 07:16:54;;;;;;;38.10;16.73;;;;;;;;;;5024053;28;20033;-72
2023/01/07 07:19:22;;;;;;;25.80;14.35;;;;;;;;;;5022570;28;20472;-72
2023/01/07 07:21:47;;;;;;;26.77;14.40;;;;;;;;;;5022548;28;20025;-72
2023/01/07 07:24:13;;;;;;;24.05;12.02;;;;;;;;;;5022007;28;20029;-72
2023/01/07 07:26:38;;;;;;;34.10;14.55;;;;;;;;;;5024046;28;20031;-71
2023/01/07 07:29:03;;;;;;;39.97;17.13;;;;;;;;;;5026649;28;20051;-72
2023/01/07 07:31:29;;;;;;;26.58;14.10;;;;;;;;;;5024677;28;20111;-72
2023/01/07 07:33:54;;;;;;;22.23;10.82;;;;;;;;;;5024781;28;20061;-73
2023/01/07 07:36:19;;;;;;;19.58;10.70;;;;;;;;;;5030640;28;20032;-73
2023/01/07 07:38:44;;;;;;;16.88;10.20;;;;;;;;;;5024026;28;20064;-73
2023/01/07 07:41:10;;;;;;;17.85;11.05;;;;;;;;;;5032319;28;20436;-74
2023/01/07 07:43:35;;;;;;;17.38;10.73;;;;;;;;;;5033792;28;20025;-72
2023/01/07 07:46:00;;;;;;;18.98;10.65;;;;;;;;;;5032280;28;20485;-72
2023/01/07 07:48:26;;;;;;;20.10;10.98;;;;;;;;;;5030316;28;20289;-73
2023/01/07 07:50:51;;;;;;;22.05;10.30;;;;;;;;;;5027643;28;20035;-73
2023/01/07 07:53:18;;;;;;;28.70;14.25;;;;;;;;;;5023477;28;20045;-71
2023/01/07 07:55:46;;;;;;;30.00;12.82;;;;;;;;;;5029296;28;20033;-71
2023/01/07 07:58:11;;;;;;;27.25;12.45;;;;;;;;;;5028288;28;20029;-71
2023/01/07 08:00:39;;;;;;;35.92;14.88;;;;;;;;;;5027561;28;20033;-72
2023/01/07 08:03:04;;;;;;;27.83;11.98;;;;;;;;;;5028605;28;20025;-73
2023/01/07 08:05:30;;;;;;;25.25;11.30;;;;;;;;;;5025516;28;20036;-71
2023/01/07 08:07:57;;;;;;;27.23;11.48;;;;;;;;;;5027031;28;20029;-72
2023/01/07 08:10:22;;;;;;;18.27;9.43;;;;;;;;;;5029225;28;20029;-72
2023/01/07 08:12:49;;;;;;;18.88;8.60;;;;;;;;;;5026622;28;20056;-72
2023/01/07 08:15:14;;;;;;;17.50;8.25;;;;;;;;;;5028862;28;20087;-72
2023/01/07 08:17:42;;;;;;;15.13;6.82;;;;;;;;;;5028398;28;20033;-73
2023/01/07 08:20:07;;;;;;;11.80;6.25;;;;;;;;;;5022370;28;20644;-72
2023/01/07 08:22:33;;;;;;;18.20;7.65;;;;;;;;;;5030734;28;20193;-72
2023/01/07 08:24:59;;;;;;;15.05;6.32;;;;;;;;;;5029278;28;20356;-72
2023/01/07 08:27:28;;;;;;;14.02;6.65;;;;;;;;;;5028867;28;20572;-74
2023/01/07 08:29:53;;;;;;;16.13;6.07;;;;;;;;;;5027561;28;20041;-73
2023/01/07 08:32:19;;;;;;;15.35;6.72;;;;;;;;;;5025340;28;20137;-72
2023/01/07 08:34:44;;;;;;;16.48;7.82;;;;;;;;;;5024503;28;20246;-72
2023/01/07 08:37:18;;;;;;;14.32;6.40;;;;;;;;;;5030465;28;20430;-73
2023/01/07 08:39:43;;;;;;;24.00;8.07;;;;;;;;;;5029272;28;20064;-73
2023/01/07 08:42:09;;;;;;;16.40;6.55;;;;;;;;;;5027573;28;20036;-73
2023/01/07 08:44:34;;;;;;;9.98;5.03;;;;;;;;;;5025039;28;20029;-72
2023/01/07 08:46:59;;;;;;;11.25;5.40;;;;;;;;;;5033333;28;20110;-72
2023/01/07 08:49:25;;;;;;;9.90;4.40;;;;;;;;;;5049894;28;20067;-73
2023/01/07 08:51:50;;;;;;;14.63;5.30;;;;;;;;;;5043126;28;20780;-71
2023/01/07 08:54:15;;;;;;;14.07;5.05;;;;;;;;;;5044218;28;21002;-72
2023/01/07 08:56:41;;;;;;;15.60;5.50;;;;;;;;;;5044001;28;20059;-72
2023/01/07 08:59:06;;;;;;;11.27;3.90;;;;;;;;;;5044027;28;20032;-72
2023/01/07 09:01:31;;;;;;;13.18;4.55;;;;;;;;;;5043927;28;20032;-74
2023/01/07 09:03:57;;;;;;;9.50;3.72;;;;;;;;;;5043954;28;20140;-72
2023/01/07 09:06:22;;;;;;;7.85;3.00;;;;;;;;;;5042804;28;20452;-72
2023/01/07 09:08:48;;;;;;;7.47;3.10;;;;;;;;;;5024981;28;20052;-71
2023/01/07 09:11:16;;;;;;;5.78;2.65;;;;;;;;;;5024895;28;20102;-72
2023/01/07 09:13:41;;;;;;;7.82;3.53;;;;;;;;;;5023450;28;20044;-72
2023/01/07 09:16:07;;;;;;;7.65;3.78;;;;;;;;;;5024397;28;20287;-72
2023/01/07 09:18:32;;;;;;;7.97;3.47;;;;;;;;;;5023326;28;20033;-71
2023/01/07 09:20:57;;;;;;;18.08;5.75;;;;;;;;;;5024841;28;20049;-72
2023/01/07 09:23:23;;;;;;;18.40;5.43;;;;;;;;;;5023827;28;20029;-73
2023/01/07 09:25:49;;;;;;;12.63;4.45;;;;;;;;;;5025823;28;20033;-71
2023/01/07 09:28:15;;;;;;;11.27;4.28;;;;;;;;;;5024262;28;20098;-71
2023/01/07 09:30:40;;;;;;;10.63;3.92;;;;;;;;;;5024115;28;20517;-72
2023/01/07 09:33:08;;;;;;;14.95;5.13;;;;;;;;;;5023539;28;20052;-72
2023/01/07 09:35:33;;;;;;;17.52;4.90;;;;;;;;;;5023524;28;20036;-72
2023/01/07 09:37:58;;;;;;;13.43;4.47;;;;;;;;;;5023632;28;20033;-72
2023/01/07 09:40:25;;;;;;;16.50;5.68;;;;;;;;;;5023956;28;20052;-71
2023/01/07 09:42:51;;;;;;;10.45;3.67;;;;;;;;;;5023754;28;20120;-72
2023/01/07 09:45:28;;;;;;;19.02;5.00;;;;;;;;;;5023609;28;20428;-72
2023/01/07 09:47:55;;;;;;;14.65;5.28;;;;;;;;;;5041663;28;20067;-73
2023/01/07 09:50:21;;;;;;;15.85;5.30;;;;;;;;;;5050020;28;20082;-70
2023/01/07 09:52:48;;;;;;;19.92;5.40;;;;;;;;;;5048296;28;20247;-74
2023/01/07 09:55:18;;;;;;;14.85;4.78;;;;;;;;;;5052411;28;20060;-73
2023/01/07 09:57:43;;;;;;;18.48;5.03;;;;;;;;;;5048991;28;20048;-73
2023/01/07 10:00:14;;;;;;;13.93;4.95;;;;;;;;;;5044772;28;20036;-73
2023/01/07 10:03:03;;;;;;;5.90;2.78;;;;;;;;;;5045395;28;20029;-74
2023/01/07 10:05:46;;;;;;;10.65;3.00;;;;;;;;;;5044886;28;20139;-74
2023/01/07 10:08:26;;;;;;;10.98;3.58;;;;;;;;;;5004449;28;20034;-74
2023/01/07 10:10:59;;;;;;;17.48;5.07;;;;;;;;;;5001972;28;20108;-72
2023/01/07 10:13:39;;;;;;;19.88;5.70;;;;;;;;;;5003945;28;20192;-73
2023/01/07 10:16:09;;;;;;;13.63;3.88;;;;;;;;;;5003686;28;20193;-74
2023/01/07 10:18:39;;;;;;;14.77;4.20;;;;;;;;;;5003223;28;20437;-72
2023/01/07 10:21:05;;;;;;;14.95;4.97;;;;;;;;;;5002892;28;20060;-72
2023/01/07 10:23:36;;;;;;;16.42;5.47;;;;;;;;;;5002909;28;20120;-72
2023/01/07 10:26:02;;;;;;;14.15;3.95;;;;;;;;;;5000559;28;20493;-72
2023/01/07 10:28:33;;;;;;;13.30;4.00;;;;;;;;;;5002272;28;20036;-73
2023/01/07 10:30:59;;;;;;;8.93;3.50;;;;;;;;;;5002766;28;20174;-73
2023/01/07 10:33:28;;;;;;;15.27;4.10;;;;;;;;;;5001985;28;20076;-73
2023/01/07 10:36:12;;;;;;;10.45;3.92;;;;;;;;;;5002583;28;20041;-73
2023/01/07 10:38:41;;;;;;;12.32;3.40;;;;;;;;;;5001063;28;20029;-74
2023/01/07 10:41:17;;;;;;;13.18;4.55;;;;;;;;;;5032681;28;20148;-73
2023/01/07 10:43:42;;;;;;;12.57;3.85;;;;;;;;;;5002689;28;20543;-73
2023/01/07 10:46:20;;;;;;;10.07;3.42;;;;;;;;;;5007378;28;20029;-72
2023/01/07 10:48:59;;;;;;;9.13;3.03;;;;;;;;;;5025050;28;20553;-74
2023/01/07 10:51:44;;;;;;;11.48;4.00;;;;;;;;;;5025251;28;20273;-73
2023/01/07 10:54:12;;;;;;;12.73;3.55;;;;;;;;;;5024971;28;20033;-73
2023/01/07 10:56:40;;;;;;;13.95;4.00;;;;;;;;;;5026022;28;20049;-73
2023/01/07 10:59:09;;;;;;;17.45;5.28;;;;;;;;;;5023224;28;20485;-73
2023/01/07 11:01:37;;;;;;;18.30;5.35;;;;;;;;;;5023908;28;20658;-73
2023/01/07 11:04:03;;;;;;;15.25;4.63;;;;;;;;;;5028350;28;20033;-75
2023/01/07 11:06:28;;;;;;;8.02;3.22;;;;;;;;;;5029290;28;20025;-74
2023/01/07 11:08:56;;;;;;;9.55;2.70;;;;;;;;;;5024734;28;20036;-73
2023/01/07 11:11:24;;;;;;;9.48;3.03;;;;;;;;;;5025861;28;20040;-74
2023/01/07 11:13:57;;;;;;;6.15;2.80;;;;;;;;;;5024461;28;20545;-74
2023/01/07 11:16:25;;;;;;;13.57;3.92;;;;;;;;;;5004871;28;20271;-75
2023/01/07 11:18:52;;;;;;;10.15;4.18;;;;;;;;;;5029567;28;20566;-74
2023/01/07 11:21:35;;;;;;;11.45;3.30;;;;;;;;;;5009532;28;20032;-74
2023/01/07 11:24:00;;;;;;;8.10;2.65;;;;;;;;;;5028996;28;20362;-73
2023/01/07 11:26:28;;;;;;;10.75;3.42;;;;;;;;;;5026885;28;20036;-72
2023/01/07 11:28:55;;;;;;;8.35;2.50;;;;;;;;;;5026409;28;20102;-73
2023/01/07 11:31:39;;;;;;;12.23;3.80;;;;;;;;;;5009898;28;20238;-74
2023/01/07 11:34:04;;;;;;;14.35;4.10;;;;;;;;;;5021377;28;20283;-72
2023/01/07 11:36:40;;;;;;;15.25;4.70;;;;;;;;;;5022704;28;20032;-72
2023/01/07 11:39:10;;;;;;;16.70;3.78;;;;;;;;;;5028228;28;20940;-73
2023/01/07 11:41:49;;;;;;;8.27;2.95;;;;;;;;;;5003752;28;20032;-73
2023/01/07 11:44:19;;;;;;;7.78;2.70;;;;;;;;;;5003968;28;20463;-74
2023/01/07 11:46:44;;;;;;;5.13;1.88;;;;;;;;;;5003056;28;20057;-72
2023/01/07 11:49:19;;;;;;;10.90;2.90;;;;;;;;;;5006954;28;20037;-74
2023/01/07 11:51:45;;;;;;;8.18;3.15;;;;;;;;;;5022113;28;20113;-73
2023/01/07 11:54:39;;;;;;;8.48;2.30;;;;;;;;;;5020108;28;20375;-74
2023/01/07 11:57:15;;;;;;;5.35;2.67;;;;;;;;;;5012342;28;20133;-74
2023/01/07 11:59:40;;;;;;;7.57;2.50;;;;;;;;;;5019843;28;20025;-72
2023/01/07 12:02:21;;;;;;;5.95;2.63;;;;;;;;;;5020049;28;20028;-73
2023/01/07 12:04:46;;;;;;;3.28;2.08;;;;;;;;;;5003222;28;20025;-72
2023/01/07 12:07:16;;;;;;;6.00;2.10;;;;;;;;;;5021450;28;20468;-73
2023/01/07 12:09:42;;;;;;;3.88;1.70;;;;;;;;;;5022606;28;20102;-73
2023/01/07 12:12:32;;;;;;;4.38;2.50;;;;;;;;;;5020227;28;20485;-74
2023/01/07 12:14:59;;;;;;;5.85;2.33;;;;;;;;;;5023441;28;20170;-72
2023/01/07 12:17:26;;;;;;;8.50;3.08;;;;;;;;;;5025728;28;20387;-74
2023/01/07 12:20:11;;;;;;;13.70;3.47;;;;;;;;;;5029592;28;20033;-73
2023/01/07 12:22:48;;;;;;;9.27;3.30;;;;;;;;;;5026373;28;20573;-74
2023/01/07 12:25:28;;;;;;;7.25;3.10;;;;;;;;;;5022015;28;20223;-74
2023/01/07 12:28:06;;;;;;;8.65;4.40;;;;;;;;;;5025220;28;20094;-73
2023/01/07 12:30:41;;;;;;;14.40;5.30;;;;;;;;;;5004012;28;20103;-73
2023/01/07 12:33:25;;;;;;;14.85;7.30;;;;;;;;;;5023382;28;20044;-74
2023/01/07 12:35:51;;;;;;;21.65;12.18;;;;;;;;;;5024165;28;20420;-73
2023/01/07 12:38:17;;;;;;;21.70;11.70;;;;;;;;;;5025995;28;20037;-73
2023/01/07 12:41:04;;;;;;;15.32;10.23;;;;;;;;;;5005443;28;20107;-73
2023/01/07 12:43:41;;;;;;;11.07;5.93;;;;;;;;;;5028675;28;20051;-73
2023/01/07 12:46:10;;;;;;;8.40;4.72;;;;;;;;;;5031381;28;20090;-72
2023/01/07 12:48:49;;;;;;;9.57;3.97;;;;;;;;;;5046704;28;20393;-72
2023/01/07 12:51:18;;;;;;;11.27;4.97;;;;;;;;;;5047386;28;20040;-73
2023/01/07 12:53:54;;;;;;;10.35;5.13;;;;;;;;;;5042407;28;20036;-73
2023/01/07 12:56:31;;;;;;;9.95;4.80;;;;;;;;;;5044614;28;20107;-72
2023/01/07 12:59:00;;;;;;;7.13;2.88;;;;;;;;;;5044916;28;20039;-72
2023/01/07 13:01:35;;;;;;;7.80;2.80;;;;;;;;;;5044476;28;20432;-73
2023/01/07 13:04:03;;;;;;;7.00;2.53;;;;;;;;;;5045751;28;20024;-73
2023/01/07 13:06:32;;;;;;;3.92;2.00;;;;;;;;;;5044743;28;20111;-73
2023/01/07 13:08:57;;;;;;;9.50;3.17;;;;;;;;;;5045174;28;20041;-72
2023/01/07 13:14:15;;;;;;;9.65;2.33;;;;;;;;;;5031869;28;20710;-74
2023/01/07 13:16:41;;;;;;;4.45;2.17;;;;;;;;;;5043942;28;20123;-72
2023/01/07 13:19:07;;;;;;;9.30;3.00;;;;;;;;;;5043911;28;20062;-72
2023/01/07 13:21:33;;;;;;;7.57;2.85;;;;;;;;;;5043229;28;20035;-72
2023/01/07 13:24:06;;;;;;;16.27;5.88;;;;;;;;;;5043733;28;20472;-75
2023/01/07 13:26:37;;;;;;;8.43;4.53;;;;;;;;;;5046125;28;20431;-75
2023/01/07 13:29:02;;;;;;;6.22;3.65;;;;;;;;;;5046552;28;20539;-74
2023/01/07 13:31:34;;;;;;;6.03;2.47;;;;;;;;;;5043470;28;20032;-74
2023/01/07 13:34:07;;;;;;;4.80;2.10;;;;;;;;;;5044088;28;20258;-73
2023/01/07 13:36:56;;;;;;;7.85;2.78;;;;;;;;;;5046448;28;20032;-74
2023/01/07 13:39:21;;;;;;;18.77;5.75;;;;;;;;;;5047627;28;20029;-74
2023/01/07 13:41:56;;;;;;;7.85;2.85;;;;;;;;;;5054240;28;20039;-73
2023/01/07 13:44:22;;;;;;;6.93;2.75;;;;;;;;;;5048871;28;20563;-74
2023/01/07 13:46:47;;;;;;;7.55;2.85;;;;;;;;;;5023191;28;20056;-73
2023/01/07 13:49:22;;;;;;;9.07;4.10;;;;;;;;;;5007234;28;20029;-74
2023/01/07 13:51:50;;;;;;;8.65;4.00;;;;;;;;;;5013320;28;20059;-75
2023/01/07 13:54:35;;;;;;;10.18;3.85;;;;;;;;;;5020502;28;20029;-74
2023/01/07 13:57:21;;;;;;;2.58;1.67;;;;;;;;;;5029811;28;20109;-74
2023/01/07 13:59:47;;;;;;;5.72;2.10;;;;;;;;;;5007440;28;20029;-73
2023/01/07 14:02:17;;;;;;;9.90;2.88;;;;;;;;;;5024030;28;20021;-72
2023/01/07 14:04:47;;;;;;;6.18;3.40;;;;;;;;;;5025881;28;20430;-73
2023/01/07 14:07:12;;;;;;;6.40;3.30;;;;;;;;;;5027400;28;20662;-73
2023/01/07 14:09:38;;;;;;;7.82;3.40;;;;;;;;;;5029464;28;20459;-75
2023/01/07 14:12:14;;;;;;;4.22;3.30;;;;;;;;;;5024393;28;20033;-73
2023/01/07 14:14:56;;;;;;;5.55;3.63;;;;;;;;;;5027528;28;20025;-74
2023/01/07 14:17:27;;;;;;;8.07;3.67;;;;;;;;;;5022510;28;20063;-74
2023/01/07 14:19:52;;;;;;;8.27;4.20;;;;;;;;;;5027810;28;20039;-74
2023/01/07 14:22:36;;;;;;;7.00;3.58;;;;;;;;;;5025367;28;20033;-73
2023/01/07 14:25:10;;;;;;;12.13;4.07;;;;;;;;;;5026604;28;20274;-74
2023/01/07 14:27:36;;;;;;;6.70;3.53;;;;;;;;;;5025178;28;20021;-74
2023/01/07 14:30:30;;;;;;;6.25;2.70;;;;;;;;;;5022396;28;20656;-73
2023/01/07 14:33:03;;;;;;;6.90;2.42;;;;;;;;;;5011207;28;20114;-73
2023/01/07 14:35:35;;;;;;;16.35;7.25;;;;;;;;;;5024451;28;20033;-73
2023/01/07 14:38:20;;;;;;;10.93;6.53;;;;;;;;;;5023877;28;20485;-73